SVA551 OMDB-OEJN
Flight info
| Callsign | SVA551 |
|---|---|
| Flight time | 2h 42m |
| Altitude | 38000 |
| Route | KUTLI L519 ATUDO M318 GOLGU M550 RIBOT DCT MIGMA DCT ITRUX Y511 ASMIS T218 IMGUT M309 VEMEM |
| Aircraft | B77W/H-SDE1E2E3FGHIJ2J3J4J5M1RWXY/LB1D1 |
Departure
| Time | 2026-04-20 23:47 |
|---|---|
| Airport | Dubai International Airport (OMDB) |
Arrival
| Time | 2026-04-21 02:29 |
|---|---|
| Airport | King Abdulaziz International Airport (OEJN) |
| Time | Latitude | Longitude | Altitude | Speed | Heading |
|---|---|---|---|---|---|
| 2026-04-20 23:05 | 25.24387 | 55.37292 | 40 ft | 0 kts | 210° |
| 2026-04-20 23:31 | 25.24390 | 55.37294 | 41 ft | 4 kts | 210° |
| 2026-04-20 23:31 | 25.24414 | 55.37309 | 39 ft | 4 kts | 210° |
| 2026-04-20 23:31 | 25.24438 | 55.37324 | 36 ft | 4 kts | 210° |
| 2026-04-20 23:32 | 25.24462 | 55.37338 | 34 ft | 4 kts | 209° |
| 2026-04-20 23:32 | 25.24485 | 55.37353 | 35 ft | 4 kts | 208° |
| 2026-04-20 23:32 | 25.24509 | 55.37367 | 36 ft | 4 kts | 206° |
| 2026-04-20 23:32 | 25.24533 | 55.37379 | 35 ft | 4 kts | 200° |
| 2026-04-20 23:33 | 25.24553 | 55.37383 | 36 ft | 3 kts | 156° |
| 2026-04-20 23:33 | 25.24562 | 55.37375 | 35 ft | 2 kts | 121° |
| 2026-04-20 23:33 | 25.24565 | 55.37371 | 34 ft | 0 kts | 119° |
| 2026-04-20 23:35 | 25.24562 | 55.37376 | 33 ft | 3 kts | 120° |
| 2026-04-20 23:35 | 25.24558 | 55.37383 | 31 ft | 0 kts | 121° |
| 2026-04-20 23:37 | 25.24550 | 55.37398 | 32 ft | 6 kts | 121° |
| 2026-04-20 23:37 | 25.24529 | 55.37435 | 35 ft | 6 kts | 122° |
| 2026-04-20 23:38 | 25.24521 | 55.37448 | 36 ft | 0 kts | 122° |
| 2026-04-20 23:38 | 25.24521 | 55.37449 | 33 ft | 1 kts | 122° |
| 2026-04-20 23:38 | 25.24514 | 55.37461 | 36 ft | 2 kts | 123° |
| 2026-04-20 23:38 | 25.24504 | 55.37478 | 37 ft | 3 kts | 123° |
| 2026-04-20 23:39 | 25.24494 | 55.37496 | 37 ft | 2 kts | 123° |
| 2026-04-20 23:39 | 25.24486 | 55.37508 | 39 ft | 1 kts | 123° |
| 2026-04-20 23:39 | 25.24487 | 55.37507 | 40 ft | 1 kts | 122° |
| 2026-04-20 23:39 | 25.24480 | 55.37520 | 37 ft | 3 kts | 122° |
| 2026-04-20 23:40 | 25.24468 | 55.37543 | 38 ft | 3 kts | 118° |
| 2026-04-20 23:40 | 25.24456 | 55.37568 | 38 ft | 4 kts | 118° |
| 2026-04-20 23:40 | 25.24444 | 55.37593 | 38 ft | 4 kts | 118° |
| 2026-04-20 23:40 | 25.24431 | 55.37618 | 39 ft | 4 kts | 122° |
| 2026-04-20 23:41 | 25.24417 | 55.37643 | 41 ft | 4 kts | 122° |
| 2026-04-20 23:41 | 25.24403 | 55.37667 | 39 ft | 4 kts | 123° |
| 2026-04-20 23:41 | 25.24389 | 55.37691 | 40 ft | 4 kts | 123° |
| 2026-04-20 23:41 | 25.24375 | 55.37715 | 40 ft | 4 kts | 123° |
| 2026-04-20 23:42 | 25.24361 | 55.37739 | 39 ft | 4 kts | 123° |
| 2026-04-20 23:42 | 25.24348 | 55.37764 | 41 ft | 4 kts | 116° |
| 2026-04-20 23:42 | 25.24343 | 55.37790 | 41 ft | 3 kts | 82° |
| 2026-04-20 23:42 | 25.24353 | 55.37819 | 31 ft | 4 kts | 75° |
| 2026-04-20 23:43 | 25.24365 | 55.37843 | 28 ft | 3 kts | 44° |
| 2026-04-20 23:43 | 25.24386 | 55.37859 | 27 ft | 4 kts | 32° |
| 2026-04-20 23:43 | 25.24408 | 55.37874 | 28 ft | 4 kts | 32° |
| 2026-04-20 23:43 | 25.24429 | 55.37890 | 27 ft | 4 kts | 34° |
| 2026-04-20 23:44 | 25.24450 | 55.37906 | 30 ft | 4 kts | 36° |
| 2026-04-20 23:44 | 25.24471 | 55.37923 | 26 ft | 4 kts | 32° |
| 2026-04-20 23:44 | 25.24493 | 55.37938 | 27 ft | 4 kts | 32° |
| 2026-04-20 23:44 | 25.24507 | 55.37948 | 28 ft | 4 kts | 33° |
| 2026-04-20 23:45 | 25.24529 | 55.37964 | 28 ft | 4 kts | 36° |
| 2026-04-20 23:45 | 25.24549 | 55.37981 | 31 ft | 4 kts | 37° |
| 2026-04-20 23:45 | 25.24576 | 55.38003 | 32 ft | 3 kts | 33° |
| 2026-04-20 23:45 | 25.24585 | 55.38010 | 33 ft | 6 kts | 32° |
| 2026-04-20 23:46 | 25.24637 | 55.38045 | 37 ft | 3 kts | 32° |
| 2026-04-20 23:46 | 25.24639 | 55.38047 | 37 ft | 0 kts | 32° |
| 2026-04-20 23:46 | 25.24683 | 55.38077 | 40 ft | 17 kts | 31° |
| 2026-04-20 23:47 | 25.24795 | 55.38041 | 39 ft | 21 kts | 302° |
| 2026-04-20 23:47 | 25.24947 | 55.37776 | 36 ft | 85 kts | 302° |
| 2026-04-20 23:47 | 25.25449 | 55.36870 | 28 ft | 190 kts | 301° |
| 2026-04-20 23:47 | 25.26236 | 55.35450 | 677 ft | 222 kts | 302° |
| 2026-04-20 23:48 | 25.26992 | 55.34053 | 2200 ft | 203 kts | 301° |
| 2026-04-20 23:48 | 25.27716 | 55.32728 | 3024 ft | 200 kts | 303° |
| 2026-04-20 23:48 | 25.28477 | 55.31413 | 3604 ft | 207 kts | 304° |
| 2026-04-20 23:48 | 25.29165 | 55.29933 | 3793 ft | 231 kts | 283° |
| 2026-04-20 23:49 | 25.29047 | 55.28162 | 3822 ft | 236 kts | 248° |
| 2026-04-20 23:49 | 25.28318 | 55.26534 | 4286 ft | 240 kts | 245° |
| 2026-04-20 23:49 | 25.27589 | 55.24842 | 4955 ft | 247 kts | 246° |
| 2026-04-20 23:49 | 25.26857 | 55.23114 | 5709 ft | 249 kts | 247° |
| 2026-04-20 23:50 | 25.26119 | 55.21377 | 6416 ft | 250 kts | 247° |
| 2026-04-20 23:50 | 25.25376 | 55.19629 | 6828 ft | 252 kts | 247° |
| 2026-04-20 23:50 | 25.24633 | 55.17883 | 7557 ft | 250 kts | 248° |
| 2026-04-20 23:50 | 25.23893 | 55.16171 | 8314 ft | 252 kts | 245° |
| 2026-04-20 23:51 | 25.22987 | 55.14380 | 8631 ft | 276 kts | 243° |
| 2026-04-20 23:51 | 25.22012 | 55.12545 | 9258 ft | 284 kts | 243° |
| 2026-04-20 23:51 | 25.20997 | 55.10625 | 10016 ft | 288 kts | 243° |
| 2026-04-20 23:51 | 25.19989 | 55.08672 | 10422 ft | 308 kts | 245° |
| 2026-04-20 23:52 | 25.19087 | 55.06424 | 10633 ft | 333 kts | 250° |
| 2026-04-20 23:52 | 25.18218 | 55.03936 | 10819 ft | 359 kts | 251° |
| 2026-04-20 23:52 | 25.17289 | 55.01330 | 11417 ft | 371 kts | 250° |
| 2026-04-20 23:52 | 25.16306 | 54.98662 | 12251 ft | 377 kts | 249° |
| 2026-04-20 23:53 | 25.15104 | 54.96102 | 13013 ft | 382 kts | 233° |
| 2026-04-20 23:53 | 25.13110 | 54.94115 | 13756 ft | 393 kts | 212° |
| 2026-04-20 23:53 | 25.10587 | 54.92911 | 14537 ft | 398 kts | 197° |
| 2026-04-20 23:53 | 25.07845 | 54.92542 | 14799 ft | 399 kts | 181° |
| 2026-04-20 23:54 | 25.05049 | 54.92632 | 14796 ft | 404 kts | 180° |
| 2026-04-20 23:54 | 25.02238 | 54.92701 | 14798 ft | 404 kts | 180° |
| 2026-04-20 23:54 | 24.99425 | 54.92851 | 14786 ft | 404 kts | 178° |
| 2026-04-20 23:54 | 24.96627 | 54.93075 | 14787 ft | 403 kts | 178° |
| 2026-04-20 23:55 | 24.93823 | 54.93296 | 14915 ft | 406 kts | 178° |
| 2026-04-20 23:55 | 24.90990 | 54.93495 | 15708 ft | 410 kts | 179° |
| 2026-04-20 23:55 | 24.88148 | 54.93662 | 16634 ft | 405 kts | 182° |
| 2026-04-20 23:55 | 24.85400 | 54.93214 | 17242 ft | 408 kts | 202° |
| 2026-04-20 23:56 | 24.82846 | 54.91788 | 17955 ft | 407 kts | 212° |
| 2026-04-20 23:56 | 24.80368 | 54.90226 | 18559 ft | 414 kts | 211° |
| 2026-04-20 23:56 | 24.77865 | 54.88706 | 19275 ft | 417 kts | 211° |
| 2026-04-20 23:56 | 24.75308 | 54.87176 | 20048 ft | 419 kts | 211° |
| 2026-04-20 23:57 | 24.72729 | 54.85640 | 20760 ft | 423 kts | 211° |
| 2026-04-20 23:57 | 24.70127 | 54.84091 | 21438 ft | 427 kts | 212° |
| 2026-04-20 23:57 | 24.67510 | 54.82515 | 22112 ft | 431 kts | 213° |
| 2026-04-20 23:57 | 24.64897 | 54.80859 | 22766 ft | 435 kts | 214° |
| 2026-04-20 23:58 | 24.62276 | 54.79164 | 23396 ft | 439 kts | 214° |
| 2026-04-20 23:58 | 24.59626 | 54.77450 | 23922 ft | 443 kts | 214° |
| 2026-04-20 23:58 | 24.56954 | 54.75735 | 24426 ft | 447 kts | 213° |
| 2026-04-20 23:58 | 24.54244 | 54.74007 | 24952 ft | 450 kts | 213° |
| 2026-04-20 23:59 | 24.51525 | 54.72264 | 25473 ft | 454 kts | 214° |
| 2026-04-20 23:59 | 24.48794 | 54.70485 | 25932 ft | 459 kts | 214° |
| 2026-04-20 23:59 | 24.46032 | 54.68683 | 26404 ft | 463 kts | 214° |
| 2026-04-20 23:59 | 24.43281 | 54.66893 | 26871 ft | 468 kts | 214° |
| 2026-04-21 00:00 | 24.40456 | 54.65088 | 27324 ft | 472 kts | 213° |
| 2026-04-21 00:00 | 24.37597 | 54.63286 | 27800 ft | 476 kts | 213° |
| 2026-04-21 00:00 | 24.34715 | 54.61469 | 28214 ft | 480 kts | 213° |
| 2026-04-21 00:00 | 24.31800 | 54.59627 | 28631 ft | 484 kts | 213° |
| 2026-04-21 00:01 | 24.28880 | 54.57772 | 29020 ft | 487 kts | 214° |
| 2026-04-21 00:01 | 24.26069 | 54.55707 | 29379 ft | 487 kts | 222° |
| 2026-04-21 00:01 | 24.23632 | 54.53125 | 29744 ft | 486 kts | 232° |
| 2026-04-21 00:01 | 24.21609 | 54.50178 | 30174 ft | 483 kts | 239° |
| 2026-04-21 00:02 | 24.19934 | 54.47022 | 30736 ft | 476 kts | 245° |
| 2026-04-21 00:02 | 24.18396 | 54.43869 | 31339 ft | 473 kts | 245° |
| 2026-04-21 00:02 | 24.16827 | 54.40713 | 31886 ft | 470 kts | 245° |
| 2026-04-21 00:02 | 24.15249 | 54.37577 | 32387 ft | 468 kts | 245° |
| 2026-04-21 00:03 | 24.13670 | 54.34458 | 32856 ft | 467 kts | 245° |
| 2026-04-21 00:03 | 24.12098 | 54.31365 | 33367 ft | 465 kts | 245° |
| 2026-04-21 00:03 | 24.10527 | 54.28275 | 33872 ft | 462 kts | 245° |
| 2026-04-21 00:03 | 24.08970 | 54.25215 | 34304 ft | 459 kts | 246° |
| 2026-04-21 00:04 | 24.07429 | 54.22187 | 34914 ft | 451 kts | 246° |
| 2026-04-21 00:04 | 24.05912 | 54.19209 | 35542 ft | 444 kts | 247° |
| 2026-04-21 00:04 | 24.04415 | 54.16265 | 35952 ft | 442 kts | 248° |
| 2026-04-21 00:04 | 24.02920 | 54.13322 | 36263 ft | 442 kts | 248° |
| 2026-04-21 00:05 | 24.01442 | 54.10415 | 36588 ft | 441 kts | 248° |
| 2026-04-21 00:05 | 23.99949 | 54.07489 | 36964 ft | 439 kts | 249° |
| 2026-04-21 00:05 | 23.98455 | 54.04590 | 37381 ft | 436 kts | 249° |
| 2026-04-21 00:05 | 23.96943 | 54.01716 | 37755 ft | 434 kts | 249° |
| 2026-04-21 00:06 | 23.95425 | 53.98846 | 37766 ft | 438 kts | 249° |
| 2026-04-21 00:06 | 23.92382 | 53.93101 | 37773 ft | 435 kts | 249° |
| 2026-04-21 00:07 | 23.89369 | 53.87413 | 37782 ft | 430 kts | 249° |
| 2026-04-21 00:07 | 23.86378 | 53.81755 | 37783 ft | 428 kts | 249° |
| 2026-04-21 00:08 | 23.83418 | 53.76157 | 37785 ft | 428 kts | 249° |
| 2026-04-21 00:08 | 23.80437 | 53.70527 | 37778 ft | 428 kts | 249° |
| 2026-04-21 00:09 | 23.77451 | 53.64895 | 37794 ft | 429 kts | 249° |
| 2026-04-21 00:09 | 23.74447 | 53.59237 | 37770 ft | 431 kts | 249° |
| 2026-04-21 00:10 | 23.71436 | 53.53572 | 37785 ft | 432 kts | 249° |
| 2026-04-21 00:10 | 23.68419 | 53.47891 | 37784 ft | 433 kts | 249° |
| 2026-04-21 00:11 | 23.65420 | 53.42229 | 37778 ft | 434 kts | 249° |
| 2026-04-21 00:11 | 23.62393 | 53.36519 | 37777 ft | 434 kts | 249° |
| 2026-04-21 00:12 | 23.59360 | 53.30807 | 37789 ft | 435 kts | 249° |
| 2026-04-21 00:12 | 23.56332 | 53.25111 | 37767 ft | 434 kts | 249° |
| 2026-04-21 00:13 | 23.53300 | 53.19414 | 37768 ft | 433 kts | 249° |
| 2026-04-21 00:13 | 23.50275 | 53.13738 | 37767 ft | 432 kts | 249° |
| 2026-04-21 00:14 | 23.47262 | 53.08087 | 37773 ft | 431 kts | 249° |
| 2026-04-21 00:14 | 23.44248 | 53.02440 | 37769 ft | 430 kts | 249° |
| 2026-04-21 00:15 | 23.41255 | 52.96841 | 37785 ft | 430 kts | 249° |
| 2026-04-21 00:15 | 23.38302 | 52.91197 | 37779 ft | 428 kts | 250° |
| 2026-04-21 00:16 | 23.35412 | 52.85532 | 37761 ft | 428 kts | 250° |
| 2026-04-21 00:16 | 23.32517 | 52.79871 | 37760 ft | 428 kts | 250° |
| 2026-04-21 00:17 | 23.29609 | 52.74214 | 37753 ft | 428 kts | 250° |
| 2026-04-21 00:17 | 23.26701 | 52.68568 | 37778 ft | 428 kts | 250° |
| 2026-04-21 00:18 | 23.23787 | 52.62916 | 37747 ft | 428 kts | 250° |
| 2026-04-21 00:18 | 23.20891 | 52.57304 | 37770 ft | 429 kts | 250° |
| 2026-04-21 00:19 | 23.18107 | 52.51608 | 37771 ft | 423 kts | 254° |
| 2026-04-21 00:19 | 23.16119 | 52.45668 | 37768 ft | 417 kts | 259° |
| 2026-04-21 00:20 | 23.14252 | 52.39686 | 37766 ft | 418 kts | 258° |
| 2026-04-21 00:20 | 23.12352 | 52.33712 | 37766 ft | 418 kts | 258° |
| 2026-04-21 00:21 | 23.10449 | 52.27742 | 37768 ft | 419 kts | 258° |
| 2026-04-21 00:21 | 23.08540 | 52.21757 | 37767 ft | 419 kts | 258° |
| 2026-04-21 00:22 | 23.06635 | 52.15785 | 37770 ft | 419 kts | 258° |
| 2026-04-21 00:22 | 23.04725 | 52.09807 | 37765 ft | 419 kts | 258° |
| 2026-04-21 00:23 | 23.02814 | 52.03833 | 37766 ft | 418 kts | 258° |
| 2026-04-21 00:23 | 23.00914 | 51.97903 | 37771 ft | 418 kts | 258° |
| 2026-04-21 00:24 | 22.98996 | 51.91927 | 37767 ft | 418 kts | 258° |
| 2026-04-21 00:24 | 22.97081 | 51.85967 | 37772 ft | 418 kts | 258° |
| 2026-04-21 00:25 | 22.95165 | 51.80010 | 37762 ft | 418 kts | 258° |
| 2026-04-21 00:25 | 22.93258 | 51.74094 | 37771 ft | 418 kts | 258° |
| 2026-04-21 00:26 | 22.91336 | 51.68136 | 37776 ft | 418 kts | 258° |
| 2026-04-21 00:26 | 22.89409 | 51.62171 | 37772 ft | 419 kts | 258° |
| 2026-04-21 00:27 | 22.87483 | 51.56219 | 37768 ft | 419 kts | 258° |
| 2026-04-21 00:27 | 22.85611 | 51.50250 | 37772 ft | 415 kts | 262° |
| 2026-04-21 00:28 | 22.84546 | 51.44163 | 37782 ft | 409 kts | 268° |
| 2026-04-21 00:28 | 22.84191 | 51.38053 | 37782 ft | 405 kts | 274° |
| 2026-04-21 00:29 | 22.84168 | 51.31969 | 37767 ft | 406 kts | 274° |
| 2026-04-21 00:29 | 22.84154 | 51.25848 | 37777 ft | 407 kts | 274° |
| 2026-04-21 00:30 | 22.84123 | 51.19709 | 37779 ft | 408 kts | 274° |
| 2026-04-21 00:30 | 22.84081 | 51.13555 | 37778 ft | 408 kts | 274° |
| 2026-04-21 00:31 | 22.84034 | 51.07392 | 37778 ft | 409 kts | 274° |
| 2026-04-21 00:31 | 22.83992 | 51.02267 | 37777 ft | 409 kts | 274° |
| 2026-04-21 00:32 | 22.83939 | 50.96106 | 37779 ft | 409 kts | 274° |
| 2026-04-21 00:32 | 22.83885 | 50.89933 | 37776 ft | 409 kts | 274° |
| 2026-04-21 00:33 | 22.83828 | 50.83773 | 37778 ft | 408 kts | 274° |
| 2026-04-21 00:33 | 22.83769 | 50.77611 | 37779 ft | 408 kts | 274° |
| 2026-04-21 00:34 | 22.83707 | 50.71490 | 37777 ft | 407 kts | 274° |
| 2026-04-21 00:34 | 22.83644 | 50.65352 | 37778 ft | 407 kts | 274° |
| 2026-04-21 00:35 | 22.83578 | 50.59224 | 37777 ft | 406 kts | 273° |
| 2026-04-21 00:35 | 22.83509 | 50.53095 | 37781 ft | 406 kts | 273° |
| 2026-04-21 00:36 | 22.83439 | 50.46973 | 37784 ft | 406 kts | 273° |
| 2026-04-21 00:36 | 22.83367 | 50.40890 | 37774 ft | 406 kts | 273° |
| 2026-04-21 00:37 | 22.83292 | 50.34755 | 37795 ft | 406 kts | 273° |
| 2026-04-21 00:37 | 22.83214 | 50.28636 | 37783 ft | 405 kts | 273° |
| 2026-04-21 00:38 | 22.83135 | 50.22569 | 37781 ft | 405 kts | 273° |
| 2026-04-21 00:38 | 22.83053 | 50.16473 | 37772 ft | 404 kts | 273° |
| 2026-04-21 00:39 | 22.82969 | 50.10378 | 37781 ft | 403 kts | 273° |
| 2026-04-21 00:39 | 22.82882 | 50.04298 | 37781 ft | 403 kts | 273° |
| 2026-04-21 00:40 | 22.82794 | 49.98213 | 37780 ft | 404 kts | 273° |
| 2026-04-21 00:40 | 22.82703 | 49.92115 | 37779 ft | 404 kts | 273° |
| 2026-04-21 00:41 | 22.82610 | 49.86022 | 37779 ft | 404 kts | 273° |
| 2026-04-21 00:41 | 22.82514 | 49.79918 | 37782 ft | 405 kts | 273° |
| 2026-04-21 00:42 | 22.82416 | 49.73858 | 37769 ft | 405 kts | 272° |
| 2026-04-21 00:42 | 22.82316 | 49.67752 | 37782 ft | 405 kts | 272° |
| 2026-04-21 00:43 | 22.82213 | 49.61629 | 37782 ft | 406 kts | 272° |
| 2026-04-21 00:43 | 22.82107 | 49.55507 | 37784 ft | 406 kts | 272° |
| 2026-04-21 00:44 | 22.81999 | 49.49372 | 37792 ft | 407 kts | 272° |
| 2026-04-21 00:44 | 22.81889 | 49.43270 | 37786 ft | 408 kts | 272° |
| 2026-04-21 00:45 | 22.81719 | 49.34054 | 37787 ft | 408 kts | 272° |
| 2026-04-21 00:45 | 22.81602 | 49.27890 | 37776 ft | 408 kts | 272° |
| 2026-04-21 00:46 | 22.81483 | 49.21727 | 37789 ft | 408 kts | 272° |
| 2026-04-21 00:46 | 22.81362 | 49.15612 | 37791 ft | 409 kts | 272° |
| 2026-04-21 00:47 | 22.81238 | 49.09440 | 37792 ft | 409 kts | 272° |
| 2026-04-21 00:47 | 22.81112 | 49.03263 | 37783 ft | 410 kts | 272° |
| 2026-04-21 00:48 | 22.80983 | 48.97078 | 37799 ft | 410 kts | 272° |
| 2026-04-21 00:48 | 22.80851 | 48.90878 | 37799 ft | 411 kts | 272° |
| 2026-04-21 00:49 | 22.80718 | 48.84718 | 37796 ft | 411 kts | 272° |
| 2026-04-21 00:49 | 22.80581 | 48.78518 | 37798 ft | 412 kts | 272° |
| 2026-04-21 00:50 | 22.80442 | 48.72306 | 37800 ft | 412 kts | 272° |
| 2026-04-21 00:50 | 22.80300 | 48.66095 | 37799 ft | 412 kts | 272° |
| 2026-04-21 00:51 | 22.80156 | 48.59892 | 37807 ft | 411 kts | 272° |
| 2026-04-21 00:51 | 22.80010 | 48.53696 | 37810 ft | 411 kts | 272° |
| 2026-04-21 00:52 | 22.79861 | 48.47517 | 37811 ft | 410 kts | 272° |
| 2026-04-21 00:52 | 22.79711 | 48.41335 | 37808 ft | 409 kts | 272° |
| 2026-04-21 00:53 | 22.79559 | 48.35195 | 37816 ft | 409 kts | 272° |
| 2026-04-21 00:53 | 22.79404 | 48.29033 | 37814 ft | 409 kts | 272° |
| 2026-04-21 00:54 | 22.79247 | 48.22877 | 37818 ft | 408 kts | 272° |
| 2026-04-21 00:54 | 22.79088 | 48.16716 | 37815 ft | 409 kts | 272° |
| 2026-04-21 00:55 | 22.78926 | 48.10559 | 37823 ft | 409 kts | 272° |
| 2026-04-21 00:55 | 22.78763 | 48.04427 | 37822 ft | 410 kts | 272° |
| 2026-04-21 00:56 | 22.78596 | 47.98255 | 37817 ft | 410 kts | 271° |
| 2026-04-21 00:56 | 22.78426 | 47.92066 | 37826 ft | 411 kts | 271° |
| 2026-04-21 00:57 | 22.78254 | 47.85871 | 37829 ft | 411 kts | 271° |
| 2026-04-21 00:57 | 22.78079 | 47.79673 | 37828 ft | 412 kts | 271° |
| 2026-04-21 00:58 | 22.77902 | 47.73470 | 37830 ft | 411 kts | 271° |
| 2026-04-21 00:58 | 22.77722 | 47.67276 | 37829 ft | 411 kts | 271° |
| 2026-04-21 00:59 | 22.77541 | 47.61120 | 37836 ft | 410 kts | 271° |
| 2026-04-21 00:59 | 22.77357 | 47.54930 | 37834 ft | 410 kts | 271° |
| 2026-04-21 01:00 | 22.77171 | 47.48761 | 37841 ft | 410 kts | 271° |
| 2026-04-21 01:00 | 22.76983 | 47.42594 | 37847 ft | 410 kts | 271° |
| 2026-04-21 01:01 | 22.76793 | 47.36447 | 37837 ft | 410 kts | 271° |
| 2026-04-21 01:01 | 22.76600 | 47.30269 | 37857 ft | 410 kts | 271° |
| 2026-04-21 01:02 | 22.76405 | 47.24072 | 37856 ft | 411 kts | 271° |
| 2026-04-21 01:02 | 22.76245 | 47.17873 | 37845 ft | 411 kts | 273° |
| 2026-04-21 01:03 | 22.76659 | 47.11719 | 37856 ft | 410 kts | 277° |
| 2026-04-21 01:03 | 22.77164 | 47.05606 | 37873 ft | 410 kts | 277° |
| 2026-04-21 01:04 | 22.77660 | 46.99429 | 37864 ft | 411 kts | 276° |
| 2026-04-21 01:04 | 22.78149 | 46.93251 | 37854 ft | 411 kts | 276° |
| 2026-04-21 01:05 | 22.78635 | 46.87073 | 37860 ft | 411 kts | 276° |
| 2026-04-21 01:05 | 22.79119 | 46.80892 | 37868 ft | 411 kts | 276° |
| 2026-04-21 01:06 | 22.79601 | 46.74718 | 37871 ft | 411 kts | 276° |
| 2026-04-21 01:06 | 22.80080 | 46.68541 | 37873 ft | 411 kts | 276° |
| 2026-04-21 01:07 | 22.80553 | 46.62410 | 37872 ft | 411 kts | 276° |
| 2026-04-21 01:07 | 22.81026 | 46.56243 | 37869 ft | 410 kts | 276° |
| 2026-04-21 01:08 | 22.81498 | 46.50075 | 37877 ft | 410 kts | 276° |
| 2026-04-21 01:08 | 22.81968 | 46.43899 | 37880 ft | 410 kts | 276° |
| 2026-04-21 01:09 | 22.82434 | 46.37728 | 37874 ft | 410 kts | 276° |
| 2026-04-21 01:09 | 22.82888 | 46.31604 | 37866 ft | 410 kts | 276° |
| 2026-04-21 01:10 | 22.83342 | 46.25429 | 37870 ft | 410 kts | 276° |
| 2026-04-21 01:10 | 22.83794 | 46.19251 | 37856 ft | 411 kts | 276° |
| 2026-04-21 01:11 | 22.84245 | 46.13068 | 37845 ft | 411 kts | 276° |
| 2026-04-21 01:11 | 22.84694 | 46.06874 | 37834 ft | 412 kts | 276° |
| 2026-04-21 01:12 | 22.85142 | 46.00678 | 37830 ft | 412 kts | 276° |
| 2026-04-21 01:12 | 22.85584 | 45.94511 | 37834 ft | 413 kts | 276° |
| 2026-04-21 01:13 | 22.86028 | 45.88296 | 37828 ft | 413 kts | 276° |
| 2026-04-21 01:13 | 22.86468 | 45.82087 | 37820 ft | 412 kts | 276° |
| 2026-04-21 01:14 | 22.86906 | 45.75896 | 37808 ft | 411 kts | 275° |
| 2026-04-21 01:14 | 22.87340 | 45.69713 | 37821 ft | 411 kts | 275° |
| 2026-04-21 01:15 | 22.87771 | 45.63537 | 37822 ft | 410 kts | 275° |
| 2026-04-21 01:15 | 22.88197 | 45.57399 | 37813 ft | 410 kts | 275° |
| 2026-04-21 01:16 | 22.88624 | 45.51212 | 37821 ft | 410 kts | 275° |
| 2026-04-21 01:16 | 22.89048 | 45.45036 | 37821 ft | 411 kts | 275° |
| 2026-04-21 01:17 | 22.89467 | 45.38896 | 37822 ft | 411 kts | 275° |
| 2026-04-21 01:17 | 22.89887 | 45.32708 | 37832 ft | 410 kts | 276° |
| 2026-04-21 01:18 | 22.90233 | 45.27584 | 37831 ft | 409 kts | 276° |
| 2026-04-21 01:18 | 22.90645 | 45.21443 | 37820 ft | 407 kts | 275° |
| 2026-04-21 01:19 | 22.91054 | 45.15325 | 37827 ft | 405 kts | 275° |
| 2026-04-21 01:19 | 22.91458 | 45.09236 | 37831 ft | 404 kts | 275° |
| 2026-04-21 01:20 | 22.91860 | 45.03163 | 37826 ft | 403 kts | 275° |
| 2026-04-21 01:20 | 22.92260 | 44.97089 | 37838 ft | 403 kts | 275° |
| 2026-04-21 01:21 | 22.92657 | 44.91020 | 37828 ft | 403 kts | 275° |
| 2026-04-21 01:21 | 22.93052 | 44.84948 | 37834 ft | 404 kts | 275° |
| 2026-04-21 01:22 | 22.93446 | 44.78864 | 37835 ft | 405 kts | 275° |
| 2026-04-21 01:22 | 22.93836 | 44.72804 | 37833 ft | 405 kts | 275° |
| 2026-04-21 01:23 | 22.94165 | 44.66696 | 37843 ft | 406 kts | 272° |
| 2026-04-21 01:23 | 22.93937 | 44.60558 | 37842 ft | 407 kts | 269° |
| 2026-04-21 01:24 | 22.93657 | 44.54415 | 37848 ft | 407 kts | 270° |
| 2026-04-21 01:24 | 22.93382 | 44.48271 | 37843 ft | 407 kts | 270° |
| 2026-04-21 01:25 | 22.93110 | 44.42140 | 37844 ft | 407 kts | 270° |
| 2026-04-21 01:25 | 22.92838 | 44.36015 | 37848 ft | 406 kts | 269° |
| 2026-04-21 01:26 | 22.92562 | 44.29890 | 37857 ft | 405 kts | 269° |
| 2026-04-21 01:26 | 22.92285 | 44.23775 | 37859 ft | 405 kts | 269° |
| 2026-04-21 01:27 | 22.92008 | 44.17711 | 37860 ft | 404 kts | 269° |
| 2026-04-21 01:27 | 22.91728 | 44.11624 | 37861 ft | 404 kts | 269° |
| 2026-04-21 01:28 | 22.91445 | 44.05545 | 37865 ft | 403 kts | 269° |
| 2026-04-21 01:28 | 22.91161 | 43.99464 | 37875 ft | 403 kts | 269° |
| 2026-04-21 01:29 | 22.90874 | 43.93402 | 37876 ft | 402 kts | 269° |
| 2026-04-21 01:29 | 22.90585 | 43.87340 | 37876 ft | 402 kts | 269° |
| 2026-04-21 01:30 | 22.90296 | 43.81307 | 37888 ft | 403 kts | 269° |
| 2026-04-21 01:30 | 22.90003 | 43.75228 | 37891 ft | 404 kts | 269° |
| 2026-04-21 01:31 | 22.89706 | 43.69138 | 37889 ft | 405 kts | 269° |
| 2026-04-21 01:31 | 22.89406 | 43.63036 | 37893 ft | 405 kts | 269° |
| 2026-04-21 01:32 | 22.89103 | 43.56918 | 37903 ft | 406 kts | 269° |
| 2026-04-21 01:32 | 22.88799 | 43.50837 | 37908 ft | 406 kts | 269° |
| 2026-04-21 01:33 | 22.88491 | 43.44709 | 37908 ft | 406 kts | 269° |
| 2026-04-21 01:33 | 22.88181 | 43.38596 | 37910 ft | 406 kts | 269° |
| 2026-04-21 01:34 | 22.87869 | 43.32480 | 37908 ft | 405 kts | 269° |
| 2026-04-21 01:34 | 22.87555 | 43.26390 | 37906 ft | 405 kts | 269° |
| 2026-04-21 01:35 | 22.87240 | 43.20293 | 37922 ft | 404 kts | 269° |
| 2026-04-21 01:35 | 22.86922 | 43.14205 | 37908 ft | 404 kts | 269° |
| 2026-04-21 01:36 | 22.86602 | 43.08116 | 37918 ft | 404 kts | 269° |
| 2026-04-21 01:36 | 22.86280 | 43.02044 | 37928 ft | 403 kts | 269° |
| 2026-04-21 01:37 | 22.85958 | 42.96012 | 37921 ft | 403 kts | 269° |
| 2026-04-21 01:37 | 22.85632 | 42.89941 | 37914 ft | 403 kts | 269° |
| 2026-04-21 01:38 | 22.85304 | 42.83888 | 37918 ft | 402 kts | 269° |
| 2026-04-21 01:38 | 22.84974 | 42.77825 | 37919 ft | 402 kts | 269° |
| 2026-04-21 01:39 | 22.84642 | 42.71782 | 37924 ft | 401 kts | 269° |
| 2026-04-21 01:39 | 22.84307 | 42.65719 | 37914 ft | 402 kts | 269° |
| 2026-04-21 01:40 | 22.83973 | 42.59696 | 37945 ft | 403 kts | 269° |
| 2026-04-21 01:40 | 22.83632 | 42.53608 | 37932 ft | 404 kts | 269° |
| 2026-04-21 01:41 | 22.83288 | 42.47518 | 37925 ft | 404 kts | 269° |
| 2026-04-21 01:41 | 22.82942 | 42.41431 | 37928 ft | 404 kts | 269° |
| 2026-04-21 01:42 | 22.82594 | 42.35346 | 37932 ft | 404 kts | 268° |
| 2026-04-21 01:42 | 22.82245 | 42.29271 | 37933 ft | 403 kts | 268° |
| 2026-04-21 01:43 | 22.81896 | 42.23254 | 37937 ft | 402 kts | 268° |
| 2026-04-21 01:43 | 22.81544 | 42.17212 | 37946 ft | 401 kts | 268° |
| 2026-04-21 01:44 | 22.81190 | 42.11186 | 37934 ft | 400 kts | 268° |
| 2026-04-21 01:44 | 22.80835 | 42.05162 | 37932 ft | 399 kts | 268° |
| 2026-04-21 01:45 | 22.80477 | 41.99143 | 37944 ft | 400 kts | 268° |
| 2026-04-21 01:45 | 22.80118 | 41.93122 | 37945 ft | 400 kts | 268° |
| 2026-04-21 01:46 | 22.79728 | 41.87145 | 37943 ft | 401 kts | 267° |
| 2026-04-21 01:46 | 22.79151 | 41.81121 | 37944 ft | 401 kts | 266° |
| 2026-04-21 01:47 | 22.78548 | 41.75098 | 37956 ft | 402 kts | 266° |
| 2026-04-21 01:47 | 22.77962 | 41.69076 | 37945 ft | 401 kts | 266° |
| 2026-04-21 01:48 | 22.77384 | 41.63055 | 37948 ft | 401 kts | 266° |
| 2026-04-21 01:48 | 22.76808 | 41.57047 | 37952 ft | 401 kts | 266° |
| 2026-04-21 01:49 | 22.76230 | 41.51048 | 37950 ft | 400 kts | 266° |
| 2026-04-21 01:49 | 22.75649 | 41.45050 | 37945 ft | 400 kts | 266° |
| 2026-04-21 01:50 | 22.75071 | 41.39098 | 37958 ft | 400 kts | 266° |
| 2026-04-21 01:50 | 22.74326 | 41.33115 | 37968 ft | 402 kts | 261° |
| 2026-04-21 01:51 | 22.72856 | 41.27241 | 37950 ft | 406 kts | 255° |
| 2026-04-21 01:51 | 22.70786 | 41.21519 | 37956 ft | 408 kts | 253° |
| 2026-04-21 01:52 | 22.67621 | 41.12958 | 37961 ft | 408 kts | 253° |
| 2026-04-21 01:53 | 22.65539 | 41.07280 | 37953 ft | 407 kts | 253° |
| 2026-04-21 01:53 | 22.63445 | 41.01576 | 37945 ft | 407 kts | 253° |
| 2026-04-21 01:54 | 22.61353 | 40.95885 | 37950 ft | 406 kts | 253° |
| 2026-04-21 01:54 | 22.59266 | 40.90210 | 37967 ft | 406 kts | 253° |
| 2026-04-21 01:55 | 22.57173 | 40.84530 | 37951 ft | 406 kts | 253° |
| 2026-04-21 01:55 | 22.55089 | 40.78893 | 37957 ft | 405 kts | 253° |
| 2026-04-21 01:56 | 22.52991 | 40.73225 | 37958 ft | 405 kts | 253° |
| 2026-04-21 01:56 | 22.50897 | 40.67572 | 37944 ft | 405 kts | 253° |
| 2026-04-21 01:57 | 22.48798 | 40.61911 | 37959 ft | 406 kts | 253° |
| 2026-04-21 01:57 | 22.46694 | 40.56243 | 37968 ft | 406 kts | 253° |
| 2026-04-21 01:57 | 22.45632 | 40.53383 | 37361 ft | 417 kts | 252° |
| 2026-04-21 01:58 | 22.44553 | 40.50475 | 36748 ft | 415 kts | 252° |
| 2026-04-21 01:58 | 22.43470 | 40.47566 | 35898 ft | 416 kts | 252° |
| 2026-04-21 01:58 | 22.42390 | 40.44667 | 34995 ft | 418 kts | 252° |
| 2026-04-21 01:58 | 22.41300 | 40.41743 | 34070 ft | 420 kts | 252° |
| 2026-04-21 01:59 | 22.40207 | 40.38810 | 33038 ft | 423 kts | 251° |
| 2026-04-21 01:59 | 22.39106 | 40.35860 | 32046 ft | 425 kts | 251° |
| 2026-04-21 01:59 | 22.37997 | 40.32888 | 31089 ft | 427 kts | 251° |
| 2026-04-21 01:59 | 22.36901 | 40.29956 | 30336 ft | 425 kts | 251° |
| 2026-04-21 02:00 | 22.35795 | 40.27000 | 29505 ft | 424 kts | 251° |
| 2026-04-21 02:00 | 22.34694 | 40.24057 | 28716 ft | 422 kts | 251° |
| 2026-04-21 02:00 | 22.33599 | 40.21133 | 27995 ft | 418 kts | 251° |
| 2026-04-21 02:00 | 22.32512 | 40.18232 | 27281 ft | 415 kts | 250° |
| 2026-04-21 02:01 | 22.31432 | 40.15348 | 26582 ft | 413 kts | 250° |
| 2026-04-21 02:01 | 22.30356 | 40.12476 | 25901 ft | 411 kts | 250° |
| 2026-04-21 02:01 | 22.29289 | 40.09629 | 25211 ft | 409 kts | 250° |
| 2026-04-21 02:01 | 22.28219 | 40.06778 | 24517 ft | 408 kts | 250° |
| 2026-04-21 02:02 | 22.27166 | 40.03975 | 24102 ft | 401 kts | 250° |
| 2026-04-21 02:02 | 22.26054 | 40.01268 | 23892 ft | 390 kts | 244° |
| 2026-04-21 02:02 | 22.24649 | 39.98808 | 23731 ft | 380 kts | 239° |
| 2026-04-21 02:02 | 22.23155 | 39.96495 | 23562 ft | 370 kts | 238° |
| 2026-04-21 02:03 | 22.21698 | 39.94255 | 23371 ft | 359 kts | 239° |
| 2026-04-21 02:03 | 22.20759 | 39.92774 | 23254 ft | 351 kts | 239° |
| 2026-04-21 02:03 | 22.19422 | 39.90615 | 23093 ft | 340 kts | 240° |
| 2026-04-21 02:03 | 22.18150 | 39.88539 | 22964 ft | 330 kts | 240° |
| 2026-04-21 02:04 | 22.16903 | 39.86496 | 22695 ft | 324 kts | 240° |
| 2026-04-21 02:04 | 22.15666 | 39.84471 | 22270 ft | 322 kts | 240° |
| 2026-04-21 02:04 | 22.14435 | 39.82457 | 21868 ft | 321 kts | 240° |
| 2026-04-21 02:04 | 22.13206 | 39.80449 | 21446 ft | 319 kts | 240° |
| 2026-04-21 02:05 | 22.11985 | 39.78455 | 21036 ft | 318 kts | 240° |
| 2026-04-21 02:05 | 22.10769 | 39.76468 | 20621 ft | 317 kts | 240° |
| 2026-04-21 02:05 | 22.09552 | 39.74483 | 20192 ft | 316 kts | 240° |
| 2026-04-21 02:05 | 22.08342 | 39.72508 | 19799 ft | 314 kts | 240° |
| 2026-04-21 02:06 | 22.07148 | 39.70562 | 19519 ft | 310 kts | 240° |
| 2026-04-21 02:06 | 22.05962 | 39.68628 | 19133 ft | 308 kts | 239° |
| 2026-04-21 02:06 | 22.04783 | 39.66706 | 18736 ft | 307 kts | 239° |
| 2026-04-21 02:06 | 22.03606 | 39.64787 | 18333 ft | 307 kts | 239° |
| 2026-04-21 02:07 | 22.02428 | 39.62866 | 17901 ft | 307 kts | 239° |
| 2026-04-21 02:07 | 22.01253 | 39.60954 | 17461 ft | 306 kts | 239° |
| 2026-04-21 02:07 | 22.00078 | 39.59041 | 17049 ft | 304 kts | 239° |
| 2026-04-21 02:07 | 21.98921 | 39.57160 | 16617 ft | 295 kts | 239° |
| 2026-04-21 02:08 | 21.97820 | 39.55370 | 16236 ft | 282 kts | 239° |
| 2026-04-21 02:08 | 21.96739 | 39.53611 | 15881 ft | 281 kts | 239° |
| 2026-04-21 02:08 | 21.95669 | 39.51872 | 15516 ft | 281 kts | 239° |
| 2026-04-21 02:08 | 21.94595 | 39.50125 | 15153 ft | 280 kts | 239° |
| 2026-04-21 02:09 | 21.93604 | 39.48309 | 14728 ft | 280 kts | 244° |
| 2026-04-21 02:09 | 21.92759 | 39.46413 | 14322 ft | 281 kts | 246° |
| 2026-04-21 02:09 | 21.91937 | 39.44497 | 13924 ft | 283 kts | 246° |
| 2026-04-21 02:09 | 21.91108 | 39.42573 | 13496 ft | 284 kts | 245° |
| 2026-04-21 02:10 | 21.90265 | 39.40635 | 13028 ft | 286 kts | 245° |
| 2026-04-21 02:10 | 21.89412 | 39.38693 | 12568 ft | 287 kts | 245° |
| 2026-04-21 02:10 | 21.88551 | 39.36746 | 12139 ft | 288 kts | 244° |
| 2026-04-21 02:10 | 21.87684 | 39.34793 | 11719 ft | 289 kts | 244° |
| 2026-04-21 02:11 | 21.86837 | 39.32891 | 11278 ft | 273 kts | 244° |
| 2026-04-21 02:11 | 21.86027 | 39.31074 | 10959 ft | 272 kts | 244° |
| 2026-04-21 02:11 | 21.85219 | 39.29265 | 10513 ft | 258 kts | 243° |
| 2026-04-21 02:11 | 21.84473 | 39.27595 | 10149 ft | 244 kts | 243° |
| 2026-04-21 02:12 | 21.83757 | 39.25993 | 9810 ft | 231 kts | 243° |
| 2026-04-21 02:12 | 21.83075 | 39.24469 | 9468 ft | 222 kts | 241° |
| 2026-04-21 02:12 | 21.82098 | 39.23211 | 9133 ft | 224 kts | 212° |
| 2026-04-21 02:12 | 21.80619 | 39.22653 | 8838 ft | 232 kts | 189° |
| 2026-04-21 02:13 | 21.78994 | 39.22798 | 8487 ft | 238 kts | 167° |
| 2026-04-21 02:13 | 21.77422 | 39.23395 | 8164 ft | 241 kts | 162° |
| 2026-04-21 02:13 | 21.75854 | 39.24045 | 7808 ft | 243 kts | 162° |
| 2026-04-21 02:13 | 21.74265 | 39.24691 | 7453 ft | 245 kts | 163° |
| 2026-04-21 02:14 | 21.72661 | 39.25333 | 7107 ft | 247 kts | 162° |
| 2026-04-21 02:14 | 21.71058 | 39.25978 | 6813 ft | 247 kts | 162° |
| 2026-04-21 02:14 | 21.69458 | 39.26618 | 6590 ft | 243 kts | 162° |
| 2026-04-21 02:14 | 21.67890 | 39.27242 | 6411 ft | 238 kts | 162° |
| 2026-04-21 02:15 | 21.66302 | 39.27869 | 5874 ft | 248 kts | 162° |
| 2026-04-21 02:15 | 21.64722 | 39.28494 | 5488 ft | 237 kts | 161° |
| 2026-04-21 02:15 | 21.63210 | 39.29093 | 5103 ft | 235 kts | 161° |
| 2026-04-21 02:15 | 21.61649 | 39.29705 | 4737 ft | 237 kts | 160° |
| 2026-04-21 02:16 | 21.60120 | 39.30305 | 4420 ft | 238 kts | 160° |
| 2026-04-21 02:16 | 21.58558 | 39.30917 | 4072 ft | 240 kts | 159° |
| 2026-04-21 02:16 | 21.56986 | 39.31533 | 3751 ft | 241 kts | 159° |
| 2026-04-21 02:16 | 21.55403 | 39.32152 | 3420 ft | 242 kts | 158° |
| 2026-04-21 02:17 | 21.53808 | 39.32776 | 3105 ft | 242 kts | 159° |
| 2026-04-21 02:17 | 21.52271 | 39.33378 | 3060 ft | 230 kts | 159° |
| 2026-04-21 02:17 | 21.50761 | 39.33970 | 3039 ft | 233 kts | 159° |
| 2026-04-21 02:17 | 21.49212 | 39.34578 | 3047 ft | 241 kts | 159° |
| 2026-04-21 02:18 | 21.47632 | 39.35196 | 3028 ft | 241 kts | 159° |
| 2026-04-21 02:18 | 21.46091 | 39.35798 | 3035 ft | 236 kts | 160° |
| 2026-04-21 02:18 | 21.44549 | 39.36404 | 3018 ft | 231 kts | 160° |
| 2026-04-21 02:18 | 21.43039 | 39.36996 | 3020 ft | 231 kts | 160° |
| 2026-04-21 02:19 | 21.41522 | 39.37593 | 3029 ft | 232 kts | 160° |
| 2026-04-21 02:19 | 21.40021 | 39.38181 | 3026 ft | 233 kts | 160° |
| 2026-04-21 02:19 | 21.38490 | 39.38782 | 3039 ft | 235 kts | 160° |
| 2026-04-21 02:19 | 21.36959 | 39.39345 | 3019 ft | 228 kts | 169° |
| 2026-04-21 02:20 | 21.35421 | 39.39208 | 3032 ft | 224 kts | 206° |
| 2026-04-21 02:20 | 21.34197 | 39.38192 | 3039 ft | 226 kts | 233° |
| 2026-04-21 02:20 | 21.33452 | 39.36713 | 3037 ft | 227 kts | 249° |
| 2026-04-21 02:20 | 21.32891 | 39.35121 | 3030 ft | 227 kts | 251° |
| 2026-04-21 02:21 | 21.32555 | 39.33500 | 3021 ft | 220 kts | 278° |
| 2026-04-21 02:21 | 21.33013 | 39.31971 | 3031 ft | 218 kts | 308° |
| 2026-04-21 02:21 | 21.34103 | 39.30855 | 3030 ft | 220 kts | 333° |
| 2026-04-21 02:21 | 21.35507 | 39.30218 | 3032 ft | 219 kts | 341° |
| 2026-04-21 02:22 | 21.36936 | 39.29681 | 3019 ft | 215 kts | 341° |
| 2026-04-21 02:22 | 21.38335 | 39.29170 | 3007 ft | 212 kts | 341° |
| 2026-04-21 02:22 | 21.39740 | 39.28653 | 3017 ft | 215 kts | 341° |
| 2026-04-21 02:22 | 21.41153 | 39.28112 | 3028 ft | 215 kts | 341° |
| 2026-04-21 02:23 | 21.42554 | 39.27565 | 3065 ft | 213 kts | 341° |
| 2026-04-21 02:23 | 21.43939 | 39.27021 | 3002 ft | 213 kts | 341° |
| 2026-04-21 02:23 | 21.45348 | 39.26466 | 2687 ft | 213 kts | 341° |
| 2026-04-21 02:23 | 21.46658 | 39.25948 | 2495 ft | 195 kts | 342° |
| 2026-04-21 02:24 | 21.47896 | 39.25458 | 2405 ft | 180 kts | 342° |
| 2026-04-21 02:24 | 21.49037 | 39.25008 | 2274 ft | 173 kts | 342° |
| 2026-04-21 02:24 | 21.50138 | 39.24575 | 2148 ft | 162 kts | 342° |
| 2026-04-21 02:24 | 21.51142 | 39.24178 | 2080 ft | 149 kts | 342° |
| 2026-04-21 02:25 | 21.52106 | 39.23798 | 2075 ft | 148 kts | 342° |
| 2026-04-21 02:25 | 21.53061 | 39.23420 | 2012 ft | 147 kts | 342° |
| 2026-04-21 02:25 | 21.54024 | 39.23040 | 1958 ft | 148 kts | 343° |
| 2026-04-21 02:25 | 21.54988 | 39.22660 | 1923 ft | 147 kts | 343° |
| 2026-04-21 02:26 | 21.55949 | 39.22281 | 1854 ft | 147 kts | 342° |
| 2026-04-21 02:26 | 21.56902 | 39.21904 | 1818 ft | 144 kts | 342° |
| 2026-04-21 02:26 | 21.57819 | 39.21541 | 1760 ft | 137 kts | 342° |
| 2026-04-21 02:26 | 21.58718 | 39.21186 | 1672 ft | 139 kts | 342° |
| 2026-04-21 02:27 | 21.59606 | 39.20835 | 1493 ft | 132 kts | 342° |
| 2026-04-21 02:27 | 21.60457 | 39.20498 | 1342 ft | 131 kts | 343° |
| 2026-04-21 02:27 | 21.61313 | 39.20161 | 1174 ft | 131 kts | 342° |
| 2026-04-21 02:27 | 21.62176 | 39.19819 | 993 ft | 133 kts | 342° |
| 2026-04-21 02:28 | 21.63049 | 39.19473 | 840 ft | 138 kts | 342° |
| 2026-04-21 02:28 | 21.63970 | 39.19110 | 655 ft | 140 kts | 341° |
| 2026-04-21 02:28 | 21.64861 | 39.18756 | 473 ft | 134 kts | 340° |
| 2026-04-21 02:28 | 21.65732 | 39.18411 | 309 ft | 137 kts | 340° |
| 2026-04-21 02:29 | 21.66630 | 39.18055 | 116 ft | 139 kts | 341° |
| 2026-04-21 02:29 | 21.67513 | 39.17707 | 39 ft | 126 kts | 340° |
| 2026-04-21 02:29 | 21.68232 | 39.17425 | 35 ft | 89 kts | 340° |
| 2026-04-21 02:29 | 21.68670 | 39.17254 | 33 ft | 45 kts | 340° |
| 2026-04-21 02:30 | 21.68808 | 39.17175 | 33 ft | 7 kts | 320° |
| 2026-04-21 02:30 | 21.68888 | 39.17075 | 35 ft | 20 kts | 307° |
| 2026-04-21 02:30 | 21.68913 | 39.16956 | 34 ft | 15 kts | 224° |
| 2026-04-21 02:30 | 21.68812 | 39.16965 | 37 ft | 15 kts | 162° |
| 2026-04-21 02:31 | 21.68714 | 39.17002 | 36 ft | 15 kts | 158° |
| 2026-04-21 02:31 | 21.68616 | 39.17043 | 36 ft | 15 kts | 160° |
| 2026-04-21 02:31 | 21.68516 | 39.17045 | 36 ft | 15 kts | 211° |
| 2026-04-21 02:31 | 21.68416 | 39.17024 | 37 ft | 15 kts | 169° |
| 2026-04-21 02:32 | 21.68316 | 39.17061 | 37 ft | 15 kts | 160° |
| 2026-04-21 02:32 | 21.68217 | 39.17100 | 37 ft | 15 kts | 160° |
| 2026-04-21 02:32 | 21.68118 | 39.17140 | 37 ft | 15 kts | 159° |
| 2026-04-21 02:32 | 21.68019 | 39.17178 | 37 ft | 15 kts | 160° |
| 2026-04-21 02:33 | 21.67920 | 39.17216 | 37 ft | 15 kts | 160° |
| 2026-04-21 02:33 | 21.67821 | 39.17254 | 37 ft | 14 kts | 159° |
| 2026-04-21 02:33 | 21.67753 | 39.17281 | 37 ft | 10 kts | 159° |
| 2026-04-21 02:33 | 21.67684 | 39.17309 | 38 ft | 11 kts | 159° |
| 2026-04-21 02:34 | 21.67610 | 39.17339 | 37 ft | 12 kts | 159° |
| 2026-04-21 02:34 | 21.67530 | 39.17372 | 37 ft | 13 kts | 159° |
| 2026-04-21 02:34 | 21.67445 | 39.17407 | 37 ft | 13 kts | 159° |
| 2026-04-21 02:34 | 21.67355 | 39.17444 | 37 ft | 14 kts | 159° |
| 2026-04-21 02:35 | 21.67257 | 39.17477 | 37 ft | 15 kts | 172° |
| 2026-04-21 02:35 | 21.67190 | 39.17416 | 37 ft | 12 kts | 259° |
| 2026-04-21 02:35 | 21.67213 | 39.17370 | 37 ft | 5 kts | 316° |
| 2026-04-21 02:35 | 21.67232 | 39.17350 | 37 ft | 1 kts | 316° |
| 2026-04-21 02:36 | 21.67234 | 39.17349 | 37 ft | 0 kts | 316° |